EB2EMZ-15 Weather Reports


Display with metric or nautical units.
time (UTC)temp
F
wind
direction
speed
MPH
gust
MPH
rain 1hr
in
rain 24hr
in
rain mn
in
humidity
%
barometer
mb
20260510153026 66 338 0.0 0.0 0.00 0.00 0.00 64 987.2
20260510152524 66 338 0.0 0.0 0.00 0.00 0.00 64 987.4
20260510152026 66 342 0.0 0.0 0.00 0.00 0.00 65 987.5
20260510151524 66 338 0.0 0.0 0.00 0.00 0.00 65 987.5
20260510151027 65 338 0.0 0.0 0.00 0.00 0.00 64 987.5
20260510150525 65 338 0.0 0.0 0.00 0.00 0.00 64 987.6
20260510150024 65 338 0.0 0.0 0.00 0.00 0.00 64 987.7
20260510145523 65 338 0.0 0.0 0.00 0.00 0.00 64 987.9
20260510145027 65 338 0.0 0.0 0.00 0.00 0.00 64 987.9
20260510144524 65 338 0.0 0.0 0.00 0.00 0.00 64 988.1
20260510144026 65 338 0.0 0.0 0.00 0.00 0.00 62 988.3
20260510143524 65 338 0.0 0.0 0.00 0.00 0.00 62 988.3
20260510143027 65 209 0.0 0.0 0.00 0.00 0.00 62 988.6
20260510142524 65 338 0.0 0.0 0.00 0.00 0.00 62 988.8
20260510142026 65 338 0.0 0.0 0.00 0.00 0.00 62 989.1
20260510141524 64 338 0.0 0.0 0.00 0.00 0.00 62 989.2
20260510141027 64 158 0.0 0.0 0.00 0.00 0.00 63 989.3
20260510140525 64 158 0.0 0.0 0.00 0.00 0.00 62 989.2
20260510140024 64 158 0.0 0.0 0.00 0.00 0.00 61 989.3
20260510135524 64 158 0.0 0.0 0.00 0.00 0.00 61 989.3
20260510135026 64 158 0.0 0.0 0.00 0.00 0.00 63 989.3
20260510134523 64 158 0.0 0.0 0.00 0.00 0.00 64 989.5
20260510134026 64 158 0.0 0.0 0.00 0.00 0.00 65 989.4
20260510133525 63 158 0.0 0.0 0.00 0.00 0.00 67 989.5
20260510133026 62 158 0.0 0.0 0.00 0.00 0.00 66 989.4
20260510132524 62 135 0.0 0.0 0.00 0.00 0.00 65 989.2
20260510132026 62 112 0.0 0.0 0.00 0.00 0.00 66 989.6
20260510131524 62 68 0.0 0.0 0.00 0.00 0.00 66 989.9
20260510131027 61 90 0.0 0.0 0.00 0.00 0.00 66 990.1
20260510130525 61 22 0.0 0.0 0.00 0.00 0.00 65 990.5
20260510130024 61 22 0.0 0.0 0.00 0.00 0.00 64 990.8
20260510125523 61 22 0.0 0.0 0.00 0.00 0.00 64 990.7
20260510125026 62 120 0.0 0.0 0.00 0.00 0.00 62 990.7
20260510124524 62 158 0.0 0.0 0.00 0.00 0.00 61 990.5
20260510124028 63 90 0.0 0.0 0.00 0.00 0.00 58 990.3
20260510123523 64 0 0.0 0.0 0.00 0.00 0.00 56 990.3
20260510123027 67 116 0.0 0.0 0.00 0.00 0.00 52 990.0
20260510122524 70 353 0.0 6.0 0.00 0.00 0.00 48 989.9
20260510122026 72 111 0.0 6.0 0.00 0.00 0.00 45 988.8
20260510121524 73 180 0.0 0.0 0.00 0.00 0.00 44 987.7
20260510121026 73 180 0.0 0.0 0.00 0.00 0.00 44 987.6
20260510120523 74 180 0.0 0.0 0.00 0.00 0.00 43 987.7
20260510120024 74 180 0.0 0.0 0.00 0.00 0.00 43 987.7
20260510115524 74 180 0.0 0.0 0.00 0.00 0.00 43 987.8
20260510115026 74 180 0.0 0.0 0.00 0.00 0.00 43 988.0
20260510114524 74 180 0.0 0.0 0.00 0.00 0.00 43 988.0
20260510114026 75 180 0.0 0.0 0.00 0.00 0.00 42 988.0
20260510113523 75 180 0.0 0.0 0.00 0.00 0.00 41 988.0
20260510113026 75 68 0.0 0.0 0.00 0.00 0.00 42 988.1
20260510112523 75 68 0.0 0.0 0.00 0.00 0.00 42 988.0
20260510112026 75 72 0.0 0.0 0.00 0.00 0.00 41 988.0
20260510111523 75 0 0.0 0.0 0.00 0.00 0.00 42 988.1
20260510111026 74 0 0.0 0.0 0.00 0.00 0.00 42 988.0
20260510110524 74 98 0.0 0.0 0.00 0.00 0.00 42 988.1
20260510110023 74 22 0.0 0.0 0.00 0.00 0.00 41 988.2
20260510105524 74 112 0.0 0.0 0.00 0.00 0.00 41 988.3
20260510105026 74 90 0.0 0.0 0.00 0.00 0.00 41 988.3
20260510104523 75 109 0.0 0.0 0.00 0.00 0.00 40 988.2
20260510104026 75 158 0.0 0.0 0.00 0.00 0.00 40 988.4
20260510103524 75 126 0.0 0.0 0.00 0.00 0.00 40 988.4
20260510103027 75 105 0.0 0.0 0.00 0.00 0.00 40 988.6
20260510102523 75 135 0.0 0.0 0.00 0.00 0.00 40 988.6
20260510102026 76 68 0.0 0.0 0.00 0.00 0.00 39 988.7
20260510101524 77 84 0.0 0.0 0.00 0.00 0.00 38 988.7
20260510101026 78 158 0.0 0.0 0.00 0.00 0.00 37 988.8
20260510100524 80 90 0.0 0.0 0.00 0.00 0.00 36 988.7
20260510100023 82 90 0.0 1.0 0.00 0.00 0.00 34 988.8
20260510095524 85 112 0.0 0.0 0.00 0.00 0.00 33 988.9
20260510095026 89 91 0.0 2.0 0.00 0.00 0.00 32 988.7
20260510094523 89 158 0.0 1.0 0.00 0.00 0.00 32 988.7
20260510094026 88 158 0.0 2.0 0.00 0.00 0.00 33 988.8
20260510093524 87 112 0.0 0.0 0.00 0.00 0.00 33 988.9
20260510093027 86 109 0.0 0.0 0.00 0.00 0.00 35 988.9
20260510092523 83 99 0.0 0.0 0.00 0.00 0.00 36 988.8
20260510092026 83 158 0.0 0.0 0.00 0.00 0.00 37 989.0
20260510091523 82 345 0.0 0.0 0.00 0.00 0.00 37 989.0
20260510091025 81 112 0.0 0.0 0.00 0.00 0.00 37 989.1
20260510090524 84 133 0.0 0.0 0.00 0.00 0.00 35 989.2
20260510090024 84 21 0.0 0.0 0.00 0.00 0.00 36 989.2
20260510085523 84 128 0.0 0.0 0.00 0.00 0.00 37 989.3
20260510085026 83 112 0.0 0.0 0.00 0.00 0.00 38 989.3
20260510084523 82 135 0.0 0.0 0.00 0.00 0.00 38 989.3
20260510084026 82 338 0.0 0.0 0.00 0.00 0.00 39 989.3
20260510083523 81 131 0.0 0.0 0.00 0.00 0.00 40 989.3
20260510083026 80 135 0.0 0.0 0.00 0.00 0.00 42 989.4
20260510082524 79 158 0.0 0.0 0.00 0.00 0.00 42 989.3
20260510082026 79 109 0.0 0.0 0.00 0.00 0.00 42 989.2
20260510081523 79 136 0.0 0.0 0.00 0.00 0.00 43 989.2
20260510081026 78 138 0.0 0.0 0.00 0.00 0.00 45 989.2
20260510080524 77 45 0.0 0.0 0.00 0.00 0.00 46 989.3
20260510080023 77 158 0.0 0.0 0.00 0.00 0.00 48 989.1
20260510075523 75 143 0.0 0.0 0.00 0.00 0.00 50 989.1
20260510075026 74 158 0.0 0.0 0.00 0.00 0.00 51 989.2
20260510074524 74 158 0.0 0.0 0.00 0.00 0.00 51 989.1
20260510074025 72 158 0.0 0.0 0.00 0.00 0.00 54 989.2
20260510073523 71 94 0.0 0.0 0.00 0.00 0.00 54 989.2
20260510073026 71 158 0.0 0.0 0.00 0.00 0.00 55 989.1
20260510072523 71 158 0.0 0.0 0.00 0.00 0.00 56 988.9
20260510072026 72 68 0.0 0.0 0.00 0.00 0.00 56 989.0
20260510071523 73 68 0.0 0.0 0.00 0.00 0.00 55 989.0
20260510071026 74 68 0.0 0.0 0.00 0.00 0.00 54 989.0
20260510070523 74 45 0.0 0.0 0.00 0.00 0.00 56 989.0
20260510070023 74 45 0.0 0.0 0.00 0.00 0.00 56 988.9
20260510065523 74 45 0.0 0.0 0.00 0.00 0.00 56 988.9
20260510065025 74 45 0.0 0.0 0.00 0.00 0.00 57 988.8
20260510064523 73 45 0.0 0.0 0.00 0.00 0.00 58 988.9
20260510064025 73 45 0.0 0.0 0.00 0.00 0.00 59 988.7
20260510063523 73 45 0.0 0.0 0.00 0.00 0.00 60 988.6
20260510063025 73 45 0.0 0.0 0.00 0.00 0.00 60 988.6
20260510062523 73 45 0.0 0.0 0.00 0.00 0.00 60 988.6
20260510062028 73 45 0.0 0.0 0.00 0.00 0.00 62 988.5
20260510061523 71 45 0.0 0.0 0.00 0.00 0.00 64 988.4
20260510061026 70 45 0.0 0.0 0.00 0.00 0.00 66 988.4
20260510060523 68 45 0.0 0.0 0.00 0.00 0.00 70 988.4
20260510060023 66 45 0.0 0.0 0.00 0.00 0.00 74 988.3
20260510055523 63 45 0.0 0.0 0.00 0.00 0.00 78 988.4
20260510055025 60 45 0.0 0.0 0.00 0.00 0.00 82 988.3
20260510054523 57 45 0.0 0.0 0.00 0.00 0.00 84 988.5
20260510054026 55 45 0.0 0.0 0.00 0.00 0.00 85 988.1
20260510053523 54 68 0.0 0.0 0.00 0.00 0.00 85 988.2
20260510053026 54 68 0.0 0.0 0.00 0.00 0.00 85 988.0
20260510052523 54 68 0.0 0.0 0.00 0.00 0.00 85 988.0
20260510052025 54 68 0.0 0.0 0.00 0.00 0.00 85 988.1
20260510051522 54 68 0.0 0.0 0.00 0.00 0.00 85 988.0
20260510051028 54 68 0.0 0.0 0.00 0.00 0.00 85 988.0
20260510050523 54 68 0.0 0.0 0.00 0.00 0.00 86 987.9
20260510050023 54 68 0.0 0.0 0.00 0.00 0.00 86 987.7
20260510045523 54 68 0.0 0.0 0.00 0.00 0.00 86 987.7
20260510045025 54 68 0.0 0.0 0.00 0.00 0.00 86 987.7
20260510044523 54 68 0.0 0.0 0.00 0.00 0.00 86 987.7
20260510044025 55 68 0.0 0.0 0.00 0.00 0.00 86 987.7
20260510043523 55 68 0.0 0.0 0.00 0.00 0.00 86 987.7
20260510043025 55 68 0.0 0.0 0.00 0.00 0.00 86 987.6
20260510042523 55 68 0.0 0.0 0.00 0.00 0.00 86 987.9
20260510042026 55 68 0.0 0.0 0.00 0.00 0.00 86 987.9
20260510041522 55 68 0.0 0.0 0.00 0.00 0.00 86 987.8
20260510041025 55 68 0.0 0.0 0.00 0.00 0.00 86 987.8
20260510040523 55 68 0.0 0.0 0.00 0.00 0.00 86 987.8
20260510040022 55 68 0.0 0.0 0.00 0.00 0.00 87 987.8
20260510035523 55 68 0.0 0.0 0.00 0.00 0.00 87 987.7
20260510035026 55 68 0.0 0.0 0.00 0.00 0.00 87 987.8
20260510034522 55 68 0.0 0.0 0.00 0.00 0.00 87 987.7
20260510034027 55 68 0.0 0.0 0.00 0.00 0.00 87 987.7
20260510033523 55 68 0.0 0.0 0.00 0.00 0.00 87 987.6
20260510033025 55 68 0.0 0.0 0.00 0.00 0.00 87 987.6
20260510032523 55 68 0.0 0.0 0.00 0.00 0.00 87 987.5
20260510032026 55 68 0.0 0.0 0.00 0.00 0.00 87 987.6
20260510031523 55 68 0.0 0.0 0.00 0.00 0.00 87 987.6
20260510031025 55 30 0.0 0.0 0.00 0.00 0.00 87 987.6
20260510030523 55 0 0.0 0.0 0.00 0.00 0.00 87 987.5
20260510030022 55 0 0.0 0.0 0.00 0.00 0.00 87 987.3
20260510025522 56 0 0.0 0.0 0.00 0.00 0.00 87 987.2
20260510025025 56 0 0.0 0.0 0.00 0.00 0.00 87 987.3
20260510024522 56 0 0.0 0.0 0.00 0.00 0.00 87 987.4
20260510024026 56 0 0.0 0.0 0.00 0.00 0.00 87 987.7
20260510023522 56 0 0.0 0.0 0.00 0.00 0.00 87 987.8
20260510023025 56 0 0.0 0.0 0.00 0.00 0.00 87 987.7
20260510022522 56 0 0.0 0.0 0.00 0.00 0.00 87 987.5
20260510022025 56 0 0.0 0.0 0.00 0.00 0.00 87 987.6
20260510021523 56 0 0.0 0.0 0.00 0.00 0.00 87 987.6
20260510021025 56 0 0.0 0.0 0.00 0.00 0.00 87 987.5
20260510020523 56 0 0.0 0.0 0.00 0.00 0.00 87 987.5
20260510020023 56 0 0.0 0.0 0.00 0.00 0.00 87 987.5
20260510015522 56 0 0.0 0.0 0.00 0.00 0.00 87 987.4
20260510015024 56 0 0.0 0.0 0.00 0.00 0.00 87 987.4
20260510014522 56 0 0.0 0.0 0.00 0.00 0.00 87 987.5
20260510014025 56 0 0.0 0.0 0.00 0.00 0.00 87 987.6
20260510013522 56 0 0.0 0.0 0.00 0.00 0.00 87 987.6
20260510013025 56 0 0.0 0.0 0.00 0.00 0.00 87 987.7
20260510012522 56 0 0.0 0.0 0.00 0.00 0.00 87 987.7
20260510012024 56 0 0.0 0.0 0.00 0.00 0.00 87 987.8
20260510011522 56 0 0.0 0.0 0.00 0.00 0.00 87 988.0
20260510011025 56 0 0.0 0.0 0.00 0.00 0.00 87 988.0
20260510010522 56 0 0.0 0.0 0.00 0.00 0.00 86 988.0
20260510010022 56 0 0.0 0.0 0.00 0.00 0.00 86 988.1
20260510005522 56 0 0.0 0.0 0.00 0.00 0.00 86 988.1
20260510005026 56 0 0.0 0.0 0.00 0.00 0.00 86 988.0
20260510004522 57 0 0.0 0.0 0.00 0.00 0.00 86 988.1
20260510004024 57 0 0.0 0.0 0.00 0.00 0.00 86 988.0
20260510003522 57 0 0.0 0.0 0.00 0.00 0.00 85 988.0
20260510003025 57 0 0.0 0.0 0.00 0.00 0.00 86 988.0
20260510002523 57 0 0.0 0.0 0.00 0.00 0.00 86 988.2
20260510002027 57 0 0.0 0.0 0.00 0.00 0.00 86 988.1
20260510001523 57 0 0.0 0.0 0.00 0.00 0.00 86 988.2
20260510001026 57 0 0.0 0.0 0.00 0.00 0.00 86 988.2
20260510000522 57 0 0.0 0.0 0.00 0.00 0.00 86 988.0
20260510000022 57 0 0.0 0.0 0.00 0.00 0.00 86 988.1
20260509235522 57 0 0.0 0.0 0.00 0.00 0.00 86 988.2
20260509235026 57 0 0.0 0.0 0.00 0.00 0.00 86 988.1
20260509234522 57 0 0.0 0.0 0.00 0.00 0.00 86 988.4
20260509234024 57 0 0.0 0.0 0.00 0.00 0.00 86 988.3
20260509233522 57 0 0.0 0.0 0.00 0.00 0.00 86 988.4
20260509233024 57 0 0.0 0.0 0.00 0.00 0.00 86 988.5
20260509232522 57 0 0.0 0.0 0.00 0.00 0.00 86 988.4
20260509232025 57 0 0.0 0.0 0.00 0.00 0.00 86 988.4
20260509231522 57 0 0.0 0.0 0.00 0.00 0.00 86 988.4
20260509231024 57 0 0.0 0.0 0.00 0.00 0.00 86 988.3
20260509230522 57 0 0.0 0.0 0.00 0.00 0.00 86 988.3
20260509225522 57 0 0.0 0.0 0.00 0.00 0.00 86 988.2
20260509225024 57 0 0.0 0.0 0.00 0.00 0.00 86 988.2
20260509224522 57 0 0.0 0.0 0.00 0.00 0.00 86 988.2
20260509224024 57 0 0.0 0.0 0.00 0.00 0.00 85 988.3
20260509223523 57 0 0.0 0.0 0.00 0.00 0.00 85 988.3
20260509223025 58 0 0.0 0.0 0.00 0.00 0.00 85 988.1
20260509222522 58 0 0.0 0.0 0.00 0.00 0.00 85 988.2
20260509222024 58 0 0.0 0.0 0.00 0.00 0.00 84 988.1
20260509221521 58 0 0.0 0.0 0.00 0.00 0.00 84 988.0
20260509221024 58 0 0.0 0.0 0.00 0.00 0.00 84 988.2
20260509220522 58 0 0.0 0.0 0.00 0.00 0.00 84 988.2
20260509220022 58 0 0.0 0.0 0.00 0.00 0.00 84 988.0
20260509215523 58 0 0.0 0.0 0.00 0.00 0.00 84 987.9
20260509215025 59 0 0.0 0.0 0.00 0.00 0.00 84 987.8
20260509214522 59 0 0.0 0.0 0.00 0.00 0.00 84 987.8
20260509214031 59 0 0.0 0.0 0.00 0.00 0.00 84 987.8
20260509213522 59 0 0.0 0.0 0.00 0.00 0.00 84 987.8
20260509213027 59 0 0.0 0.0 0.00 0.00 0.00 84 987.6
20260509212522 59 0 0.0 0.0 0.00 0.00 0.00 84 987.7
20260509212025 59 0 0.0 0.0 0.00 0.00 0.00 84 987.7
20260509211522 59 0 0.0 0.0 0.00 0.00 0.00 84 987.9
20260509211026 59 0 0.0 0.0 0.00 0.00 0.00 84 987.7
20260509210523 59 0 0.0 0.0 0.00 0.00 0.00 84 987.8
20260509210022 59 0 0.0 0.0 0.00 0.00 0.00 84 987.7
20260509205522 59 0 0.0 0.0 0.00 0.00 0.00 84 987.6
20260509205025 59 0 0.0 0.0 0.00 0.00 0.00 84 987.7
20260509204521 59 346 0.0 0.0 0.00 0.00 0.00 83 987.5
20260509204026 59 0 0.0 0.0 0.00 0.00 0.00 83 987.6
20260509203522 59 0 0.0 0.0 0.00 0.00 0.00 83 987.6
20260509203024 59 0 0.0 0.0 0.00 0.00 0.00 83 987.5
20260509202523 59 0 0.0 0.0 0.00 0.00 0.00 83 987.7
20260509202025 59 338 0.0 0.0 0.00 0.00 0.00 82 987.6
20260509201522 59 0 0.0 0.0 0.00 0.00 0.00 82 987.7
20260509201026 59 315 0.0 0.0 0.00 0.00 0.00 82 987.5
20260509200522 59 315 0.0 0.0 0.00 0.00 0.00 82 987.4
20260509200022 59 315 0.0 0.0 0.00 0.00 0.00 81 987.2
20260509195522 59 315 0.0 0.0 0.00 0.00 0.00 81 987.2
20260509195025 60 315 0.0 0.0 0.00 0.00 0.00 81 987.1
20260509194521 60 270 0.0 0.0 0.00 0.00 0.00 81 987.2
20260509194025 60 270 0.0 0.0 0.00 0.00 0.00 80 987.2
20260509193521 60 270 0.0 0.0 0.00 0.00 0.00 80 987.1
20260509193024 60 276 0.0 0.0 0.00 0.00 0.00 80 987.0
20260509192522 60 315 0.0 0.0 0.00 0.00 0.00 80 987.0
20260509192025 60 315 0.0 0.0 0.00 0.00 0.00 79 987.0
20260509191522 60 315 0.0 0.0 0.00 0.00 0.00 79 987.1
20260509191024 60 315 0.0 0.0 0.00 0.00 0.00 78 987.1
20260509190523 61 315 0.0 0.0 0.00 0.00 0.00 78 987.1
20260509190022 61 315 0.0 0.0 0.00 0.00 0.00 78 987.0
20260509185521 61 315 0.0 0.0 0.00 0.00 0.00 77 987.0
20260509185024 61 315 0.0 0.0 0.00 0.00 0.00 77 987.1
20260509184521 61 315 0.0 0.0 0.00 0.00 0.00 76 987.1
20260509184033 61 315 0.0 0.0 0.00 0.00 0.00 76 987.1
20260509183522 62 315 0.0 0.0 0.00 0.00 0.00 75 987.1
20260509183024 62 315 0.0 0.0 0.00 0.00 0.00 75 987.1
20260509182522 62 315 0.0 0.0 0.00 0.00 0.00 75 987.0
20260509182034 62 315 0.0 0.0 0.00 0.00 0.00 75 987.1
20260509181521 62 315 0.0 0.0 0.00 0.00 0.00 74 987.2
20260509181024 62 315 0.0 0.0 0.00 0.00 0.00 74 987.2
20260509180521 62 315 0.0 0.0 0.00 0.00 0.00 74 987.4
20260509180021 62 315 0.0 0.0 0.00 0.00 0.00 73 987.3
20260509175522 62 315 0.0 0.0 0.00 0.00 0.00 73 987.4
20260509175032 62 315 0.0 0.0 0.00 0.00 0.00 72 987.3
20260509174522 62 315 0.0 0.0 0.00 0.00 0.00 71 987.2
20260509174024 62 315 0.0 0.0 0.00 0.00 0.00 71 987.2
20260509173522 62 315 0.0 0.0 0.00 0.00 0.00 68 987.4
20260509173024 63 315 0.0 0.0 0.00 0.00 0.00 67 987.5
20260509172521 64 338 0.0 0.0 0.00 0.00 0.00 66 987.5
20260509172023 64 338 0.0 0.0 0.00 0.00 0.00 64 987.6
20260509171522 65 338 0.0 0.0 0.00 0.00 0.00 62 987.5
20260509171024 66 338 0.0 0.0 0.00 0.00 0.00 60 987.6
20260509170522 67 338 0.0 0.0 0.00 0.00 0.00 58 987.5
20260509170022 68 338 0.0 0.0 0.00 0.00 0.00 55 987.7
20260509165522 69 338 0.0 0.0 0.00 0.00 0.00 52 987.3
20260509165024 70 350 0.0 0.0 0.00 0.00 0.00 51 987.2
20260509164521 70 0 0.0 0.0 0.00 0.00 0.00 51 986.9
20260509164024 71 0 0.0 0.0 0.00 0.00 0.00 51 986.6
20260509163521 71 0 0.0 0.0 0.00 0.00 0.00 51 986.5
20260509163024 72 0 0.0 0.0 0.00 0.00 0.00 51 986.2
20260509162521 72 158 0.0 0.0 0.00 0.00 0.00 52 985.8
20260509162025 73 158 0.0 0.0 0.00 0.00 0.00 51 985.8
20260509161521 73 158 0.0 0.0 0.00 0.00 0.00 51 985.7
20260509161024 74 158 0.0 0.0 0.00 0.00 0.00 50 985.7
20260509160521 74 158 0.0 0.0 0.00 0.00 0.00 49 985.8
20260509160021 74 180 0.0 0.0 0.00 0.00 0.00 49 985.7
20260509155521 74 180 0.0 0.0 0.00 0.00 0.00 49 985.6
20260509155024 75 180 0.0 0.0 0.00 0.00 0.00 48 985.6
20260509154521 75 180 0.0 0.0 0.00 0.00 0.00 48 985.5
20260509154027 76 158 0.0 5.0 0.00 0.00 0.00 48 985.6
20260509153521 76 158 0.0 0.0 0.00 0.00 0.00 48 985.6